Time;durP1;ratioP1;P1;durP2;ratioP2;P2;SDS_P1;SDS_P2;PMS_P1;PMS_P2;Temp;Humidity;BMP_temperature;BMP_pressure;BME280_temperature;BME280_humidity;BME280_pressure;Samples;Min_cycle;Max_cycle;Signal;HPM_P1;HPM_P2
2024/01/31 00:00:39;;;;;;;8.63;5.10;;;;;7.60;95576.00;;;;7402474;19;20137;-83
2024/01/31 00:03:07;;;;;;;9.90;4.80;;;;;7.50;95577.00;;;;7402884;19;20698;-84
2024/01/31 00:05:46;;;;;;;5.97;4.40;;;;;7.50;95574.00;;;;7402120;19;20149;-83
2024/01/31 00:08:20;;;;;;;7.03;4.90;;;;;7.40;95578.00;;;;7402890;19;20137;-83
2024/01/31 00:10:51;;;;;;;8.33;5.43;;;;;7.70;95579.00;;;;7403912;19;20155;-82
2024/01/31 00:13:31;;;;;;;8.80;4.93;;;;;7.60;95577.00;;;;7402849;19;20148;-83
2024/01/31 00:15:59;;;;;;;9.87;4.90;;;;;7.50;95575.00;;;;7403322;19;20148;-82
2024/01/31 00:18:33;;;;;;;7.17;5.23;;;;;7.40;95571.00;;;;7402807;19;20155;-82
2024/01/31 00:21:02;;;;;;;6.53;4.50;;;;;7.60;95583.00;;;;7403022;19;20145;-84
2024/01/31 00:23:37;;;;;;;9.83;5.00;;;;;7.20;95579.00;;;;7403169;19;20175;-83
2024/01/31 00:26:09;;;;;;;6.83;4.50;;;;;7.40;95575.00;;;;7403196;19;20707;-82
2024/01/31 00:28:42;;;;;;;7.10;5.00;;;;;7.30;95585.00;;;;7403283;19;20153;-82
2024/01/31 00:31:17;;;;;;;7.20;5.00;;;;;7.30;95576.00;;;;7402591;19;20145;-83
2024/01/31 00:33:54;;;;;;;9.23;4.83;;;;;7.20;95570.00;;;;7403515;19;20473;-82
2024/01/31 00:36:24;;;;;;;9.47;5.03;;;;;7.30;95568.00;;;;7402856;19;20137;-84
2024/01/31 00:38:54;;;;;;;11.00;4.47;;;;;7.20;95570.00;;;;7402743;19;20509;-85
2024/01/31 00:41:33;;;;;;;12.27;5.50;;;;;7.40;95573.00;;;;7401899;19;20132;-82
2024/01/31 00:44:00;;;;;;;7.90;5.10;;;;;7.30;95574.00;;;;7401084;19;20173;-83
2024/01/31 00:46:41;;;;;;;10.33;4.97;;;;;7.50;95576.00;;;;7400583;19;20593;-81
2024/01/31 00:49:09;;;;;;;6.50;4.67;;;;;7.30;95578.00;;;;7400597;19;20136;-78
2024/01/31 00:51:48;;;;;;;7.53;4.67;;;;;7.30;95578.00;;;;7399198;19;20145;-79
2024/01/31 00:54:24;;;;;;;9.17;4.30;;;;;7.20;95573.00;;;;7400462;19;20140;-78
2024/01/31 00:57:00;;;;;;;11.27;4.63;;;;;7.50;95574.00;;;;7399578;19;20128;-80
2024/01/31 00:59:33;;;;;;;12.37;5.13;;;;;7.60;95573.00;;;;7397921;19;20488;-81
2024/01/31 01:02:16;;;;;;;10.27;4.67;;;;;7.30;95580.00;;;;7399034;19;20224;-79
2024/01/31 01:04:52;;;;;;;6.13;4.10;;;;;7.30;95579.00;;;;7398474;19;20491;-79
2024/01/31 01:07:25;;;;;;;7.40;4.40;;;;;7.40;95580.00;;;;7397030;19;20535;-81
2024/01/31 01:09:59;;;;;;;5.93;4.07;;;;;7.30;95581.00;;;;7398805;19;20485;-80
2024/01/31 01:12:45;;;;;;;6.60;4.60;;;;;7.10;95592.00;;;;7397398;19;20165;-79
2024/01/31 01:15:20;;;;;;;9.80;4.80;;;;;7.10;95595.00;;;;7401151;19;20128;-79
2024/01/31 01:17:47;;;;;;;7.40;4.67;;;;;7.20;95585.00;;;;7398315;19;20599;-80
2024/01/31 01:20:32;;;;;;;5.97;4.13;;;;;7.10;95593.00;;;;7399185;19;20451;-79
2024/01/31 01:23:00;;;;;;;11.27;5.10;;;;;7.00;95596.00;;;;7398710;19;20141;-80
2024/01/31 01:25:37;;;;;;;9.30;4.87;;;;;6.90;95596.00;;;;7397560;19;20140;-79
2024/01/31 01:28:12;;;;;;;6.47;5.10;;;;;6.90;95595.00;;;;7397017;19;20507;-80
2024/01/31 01:30:52;;;;;;;8.30;5.20;;;;;6.90;95596.00;;;;7399059;19;20136;-80
2024/01/31 01:33:27;;;;;;;7.20;4.67;;;;;6.90;95601.00;;;;7397697;19;20140;-81
2024/01/31 01:36:03;;;;;;;8.17;5.47;;;;;6.90;95593.00;;;;7397993;19;20147;-80
2024/01/31 01:38:33;;;;;;;8.77;4.80;;;;;7.10;95595.00;;;;7399440;19;20502;-80
2024/01/31 01:41:09;;;;;;;8.13;4.30;;;;;7.10;95589.00;;;;7398369;19;20590;-80
2024/01/31 01:43:36;;;;;;;5.73;4.40;;;;;7.00;95582.00;;;;7397053;19;20183;-78
2024/01/31 01:46:18;;;;;;;6.25;4.00;;;;;6.70;95582.00;;;;7394851;19;20132;-80
2024/01/31 01:48:53;;;;;;;6.70;4.33;;;;;6.70;95587.00;;;;7396705;19;20656;-80
2024/01/31 01:51:27;;;;;;;8.90;4.57;;;;;6.60;95596.00;;;;7396992;19;20136;-78
2024/01/31 01:53:56;;;;;;;7.83;4.63;;;;;6.80;95586.00;;;;7397125;19;20145;-80
2024/01/31 01:56:30;;;;;;;7.00;4.43;;;;;6.70;95584.00;;;;7398094;19;20608;-81
2024/01/31 01:58:58;;;;;;;8.30;4.27;;;;;6.70;95570.00;;;;7397523;19;20152;-79
2024/01/31 02:01:36;;;;;;;5.77;4.17;;;;;7.00;95584.00;;;;7398019;19;20148;-77
2024/01/31 02:04:08;;;;;;;10.07;4.53;;;;;6.80;95573.00;;;;7398622;19;20137;-80
2024/01/31 02:06:43;;;;;;;9.27;4.73;;;;;6.70;95578.00;;;;7397334;19;20617;-80
2024/01/31 02:09:18;;;;;;;7.27;3.90;;;;;6.60;95571.00;;;;7396954;19;20624;-79
2024/01/31 02:12:00;;;;;;;6.20;4.10;;;;;6.70;95569.00;;;;7397870;19;20579;-80
2024/01/31 02:14:27;;;;;;;8.63;4.47;;;;;6.80;95565.00;;;;7403405;19;20148;-81
2024/01/31 02:17:02;;;;;;;10.13;4.93;;;;;6.80;95567.00;;;;7404608;19;20563;-79
2024/01/31 02:19:30;;;;;;;8.80;4.20;;;;;6.70;95564.00;;;;7404424;19;20161;-78
2024/01/31 02:22:19;;;;;;;8.33;4.77;;;;;6.80;95564.00;;;;7404539;19;20160;-77
2024/01/31 02:24:47;;;;;;;8.03;5.03;;;;;6.90;95563.00;;;;7404317;19;20685;-77
2024/01/31 02:27:21;;;;;;;6.50;4.83;;;;;7.10;95560.00;;;;7402664;19;20509;-79
2024/01/31 02:29:55;;;;;;;11.93;6.27;;;;;7.30;95558.00;;;;7404568;19;20145;-79
2024/01/31 02:32:23;;;;;;;7.10;5.03;;;;;7.00;95557.00;;;;7404149;19;20137;-79
2024/01/31 02:34:58;;;;;;;8.57;4.93;;;;;6.80;95552.00;;;;7405462;19;20132;-80
2024/01/31 02:37:28;;;;;;;6.27;4.67;;;;;7.00;95544.00;;;;7404888;19;20144;-78
2024/01/31 02:40:07;;;;;;;8.67;4.87;;;;;6.80;95550.00;;;;7403844;19;20146;-78
2024/01/31 02:42:35;;;;;;;6.27;4.50;;;;;6.80;95540.00;;;;7403731;19;20527;-79
2024/01/31 02:45:09;;;;;;;6.77;4.50;;;;;6.70;95545.00;;;;7404847;19;20136;-79
2024/01/31 02:47:38;;;;;;;6.07;4.40;;;;;6.70;95549.00;;;;7403217;19;20137;-78
2024/01/31 02:50:17;;;;;;;6.93;4.40;;;;;6.70;95539.00;;;;7403482;19;20619;-79
2024/01/31 02:52:51;;;;;;;8.50;5.40;;;;;6.90;95543.00;;;;7403070;19;20212;-79
2024/01/31 02:55:28;;;;;;;6.67;4.40;;;;;6.70;95547.00;;;;7403805;19;20202;-80
2024/01/31 02:57:57;;;;;;;6.33;4.20;;;;;6.70;95542.00;;;;7404007;19;20624;-79
2024/01/31 03:00:32;;;;;;;7.57;4.83;;;;;6.70;95540.00;;;;7405004;19;20204;-80
2024/01/31 03:03:00;;;;;;;7.80;4.70;;;;;6.90;95538.00;;;;7403728;19;20132;-79
2024/01/31 03:05:36;;;;;;;6.37;4.70;;;;;6.80;95544.00;;;;7404377;19;20501;-80
2024/01/31 03:08:06;;;;;;;8.40;5.20;;;;;7.00;95542.00;;;;7406447;19;20136;-84
2024/01/31 03:10:45;;;;;;;6.70;4.30;;;;;6.80;95539.00;;;;7408554;19;20208;-85
2024/01/31 03:13:19;;;;;;;7.83;4.90;;;;;6.80;95545.00;;;;7407521;19;20599;-85
2024/01/31 03:15:56;;;;;;;7.53;4.27;;;;;6.60;95551.00;;;;7410349;19;20216;-84
2024/01/31 03:18:24;;;;;;;6.47;4.47;;;;;6.80;95553.00;;;;7409563;19;20585;-86
2024/01/31 03:20:58;;;;;;;7.80;4.70;;;;;6.90;95550.00;;;;7410504;19;20144;-85
2024/01/31 03:23:26;;;;;;;8.27;5.20;;;;;7.00;95548.00;;;;7408185;19;20140;-84
2024/01/31 03:26:08;;;;;;;9.43;4.77;;;;;7.00;95543.00;;;;7407347;19;20149;-85
2024/01/31 03:28:43;;;;;;;8.50;5.20;;;;;7.30;95539.00;;;;7405364;19;20137;-85
2024/01/31 03:31:20;;;;;;;9.30;5.27;;;;;7.30;95533.00;;;;7407938;19;20140;-85
2024/01/31 03:33:50;;;;;;;7.47;4.87;;;;;7.40;95531.00;;;;7409108;19;20643;-85
2024/01/31 03:36:23;;;;;;;7.77;4.73;;;;;7.20;95534.00;;;;7408501;19;20145;-85
2024/01/31 03:38:52;;;;;;;7.83;4.60;;;;;7.20;95532.00;;;;7408601;19;20145;-85
2024/01/31 03:41:27;;;;;;;8.63;4.73;;;;;7.00;95529.00;;;;7408587;19;20475;-86
2024/01/31 03:43:56;;;;;;;12.20;4.70;;;;;7.10;95543.00;;;;7405674;19;20172;-86
2024/01/31 03:46:30;;;;;;;8.47;5.20;;;;;7.20;95536.00;;;;7406926;19;20517;-85
2024/01/31 03:48:58;;;;;;;10.90;5.67;;;;;7.30;95527.00;;;;7405840;19;20145;-85
2024/01/31 03:51:33;;;;;;;11.43;5.50;;;;;7.10;95526.00;;;;7408379;19;20229;-86
2024/01/31 03:54:00;;;;;;;6.50;4.33;;;;;6.90;95530.00;;;;7406958;19;20128;-85
2024/01/31 03:56:28;;;;;;;14.80;5.20;;;;;6.80;95532.00;;;;7407348;19;20144;-84
2024/01/31 03:59:04;;;;;;;8.57;5.27;;;;;7.10;95541.00;;;;7409890;19;20211;-84
2024/01/31 04:01:38;;;;;;;7.57;5.20;;;;;6.90;95534.00;;;;7408754;19;20136;-84
2024/01/31 04:04:06;;;;;;;11.40;5.93;;;;;7.00;95541.00;;;;7406517;19;20620;-84
2024/01/31 04:06:36;;;;;;;9.17;5.30;;;;;7.10;95546.00;;;;7406089;19;20616;-85
2024/01/31 04:09:13;;;;;;;10.50;5.80;;;;;7.10;95544.00;;;;7405538;19;20631;-83
2024/01/31 04:11:47;;;;;;;10.43;5.13;;;;;7.10;95546.00;;;;7407680;19;20144;-86
2024/01/31 04:14:28;;;;;;;11.47;6.70;;;;;7.20;95546.00;;;;7405254;19;20144;-86
2024/01/31 04:16:55;;;;;;;9.90;4.90;;;;;7.20;95543.00;;;;7405005;19;20641;-80
2024/01/31 04:19:29;;;;;;;8.47;5.47;;;;;7.40;95555.00;;;;7402122;19;20203;-79
2024/01/31 04:22:00;;;;;;;9.43;5.40;;;;;7.20;95551.00;;;;7401605;19;20150;-78
2024/01/31 04:24:37;;;;;;;9.53;5.73;;;;;7.30;95547.00;;;;7402320;19;20204;-81
2024/01/31 04:27:15;;;;;;;7.07;5.10;;;;;7.10;95552.00;;;;7400409;19;20165;-80
2024/01/31 04:29:43;;;;;;;10.50;5.57;;;;;7.20;95550.00;;;;7398384;19;20672;-80
2024/01/31 04:32:17;;;;;;;7.23;5.57;;;;;7.20;95546.00;;;;7400893;19;20140;-79
2024/01/31 04:34:45;;;;;;;7.90;4.90;;;;;7.10;95551.00;;;;7398759;19;20144;-80
2024/01/31 04:37:30;;;;;;;8.90;5.30;;;;;7.10;95549.00;;;;7400790;19;20120;-80
2024/01/31 04:40:08;;;;;;;8.73;5.20;;;;;7.20;95552.00;;;;7399372;19;20150;-80
2024/01/31 04:42:45;;;;;;;7.80;5.00;;;;;7.00;95565.00;;;;7400344;19;20168;-80
2024/01/31 04:45:12;;;;;;;10.50;5.60;;;;;7.10;95556.00;;;;7399519;19;20137;-79
2024/01/31 04:47:48;;;;;;;7.80;5.10;;;;;7.00;95563.00;;;;7402281;19;20139;-80
2024/01/31 04:50:16;;;;;;;7.53;4.90;;;;;6.90;95564.00;;;;7398747;19;20155;-78
2024/01/31 04:52:55;;;;;;;7.20;4.83;;;;;6.90;95559.00;;;;7398393;19;20140;-79
2024/01/31 04:55:31;;;;;;;8.03;5.67;;;;;6.80;95569.00;;;;7400473;19;20546;-79
2024/01/31 04:58:08;;;;;;;8.83;5.47;;;;;6.90;95572.00;;;;7400404;19;20156;-80
2024/01/31 05:00:42;;;;;;;10.07;4.70;;;;;6.90;95571.00;;;;7400585;19;20617;-80
2024/01/31 05:03:17;;;;;;;7.47;4.93;;;;;6.90;95573.00;;;;7397719;19;20530;-79
2024/01/31 05:05:48;;;;;;;9.00;5.00;;;;;7.00;95574.00;;;;7400752;19;20605;-80
2024/01/31 05:08:28;;;;;;;7.77;4.90;;;;;6.80;95575.00;;;;7398974;19;20196;-78
2024/01/31 05:10:56;;;;;;;8.53;5.10;;;;;6.90;95583.00;;;;7400674;19;20493;-78
2024/01/31 05:13:38;;;;;;;6.30;5.07;;;;;7.00;95580.00;;;;7397273;19;20616;-80
2024/01/31 05:16:11;;;;;;;9.80;5.33;;;;;6.90;95584.00;;;;7398247;19;20149;-78
2024/01/31 05:18:46;;;;;;;8.13;5.10;;;;;6.80;95580.00;;;;7398156;19;20133;-80
2024/01/31 05:21:20;;;;;;;7.40;5.50;;;;;6.90;95591.00;;;;7398602;19;20170;-80
2024/01/31 05:23:57;;;;;;;12.23;5.50;;;;;6.80;95596.00;;;;7397507;19;20161;-81
2024/01/31 05:26:33;;;;;;;8.47;5.53;;;;;7.00;95592.00;;;;7399015;19;20596;-79
2024/01/31 05:29:01;;;;;;;8.40;5.20;;;;;6.80;95590.00;;;;7397107;19;20133;-78
2024/01/31 05:31:37;;;;;;;11.20;6.30;;;;;6.70;95583.00;;;;7397822;19;20620;-82
2024/01/31 05:34:07;;;;;;;12.73;6.23;;;;;6.90;95582.00;;;;7400064;19;20179;-78
2024/01/31 05:36:41;;;;;;;7.50;5.37;;;;;6.50;95584.00;;;;7398672;19;20146;-78
2024/01/31 05:39:16;;;;;;;8.23;6.37;;;;;6.50;95589.00;;;;7399092;19;20168;-79
2024/01/31 05:41:50;;;;;;;8.47;6.00;;;;;6.50;95588.00;;;;7398064;19;20156;-80
2024/01/31 05:44:28;;;;;;;12.63;5.70;;;;;6.50;95589.00;;;;7398457;19;20188;-77
2024/01/31 05:46:56;;;;;;;7.50;5.80;;;;;6.60;95598.00;;;;7397850;19;20141;-82
2024/01/31 05:49:30;;;;;;;8.70;5.90;;;;;6.60;95589.00;;;;7397714;19;20168;-79
2024/01/31 05:52:07;;;;;;;7.97;5.87;;;;;6.80;95592.00;;;;7398410;19;20160;-80
2024/01/31 05:54:40;;;;;;;9.20;5.57;;;;;6.70;95582.00;;;;7397198;19;20624;-79
2024/01/31 05:57:17;;;;;;;8.83;5.83;;;;;6.80;95589.00;;;;7396659;19;20165;-79
2024/01/31 05:59:44;;;;;;;11.50;6.30;;;;;6.80;95580.00;;;;7397136;19;20509;-79
2024/01/31 06:02:18;;;;;;;8.70;5.63;;;;;6.90;95580.00;;;;7398724;19;20145;-80
2024/01/31 06:04:46;;;;;;;9.00;5.90;;;;;6.80;95584.00;;;;7397986;19;20145;-79
2024/01/31 06:07:20;;;;;;;7.73;5.87;;;;;6.90;95586.00;;;;7398085;19;20153;-81
2024/01/31 06:09:52;;;;;;;9.27;5.33;;;;;6.90;95594.00;;;;7396956;19;20144;-78
2024/01/31 06:12:39;;;;;;;8.23;5.50;;;;;6.80;95589.00;;;;7395451;19;20550;-79
2024/01/31 06:15:14;;;;;;;7.47;5.80;;;;;6.70;95588.00;;;;7399490;19;20133;-78
2024/01/31 06:17:49;;;;;;;9.57;5.90;;;;;6.60;95587.00;;;;7397958;19;20145;-79
2024/01/31 06:20:20;;;;;;;10.93;6.67;;;;;6.60;95587.00;;;;7398102;19;20731;-80
2024/01/31 06:22:54;;;;;;;10.00;6.10;;;;;6.60;95588.00;;;;7398604;19;20121;-78
2024/01/31 06:25:22;;;;;;;12.00;6.30;;;;;6.60;95591.00;;;;7398103;19;20147;-78
2024/01/31 06:27:49;;;;;;;12.00;6.43;;;;;6.80;95593.00;;;;7397498;19;20503;-80
2024/01/31 06:30:31;;;;;;;14.37;6.60;;;;;6.80;95601.00;;;;7396010;19;20197;-80
2024/01/31 06:33:07;;;;;;;8.27;6.10;;;;;6.70;95589.00;;;;7397479;19;20144;-78
2024/01/31 06:35:43;;;;;;;9.83;6.50;;;;;6.60;95584.00;;;;7393439;19;20497;-79
2024/01/31 06:38:15;;;;;;;15.10;6.20;;;;;6.60;95586.00;;;;7395664;19;20641;-79
2024/01/31 06:40:58;;;;;;;11.03;6.27;;;;;6.70;95602.00;;;;7396898;19;20165;-81
2024/01/31 06:43:25;;;;;;;10.40;6.70;;;;;6.60;95589.00;;;;7396905;19;20170;-79
2024/01/31 06:46:01;;;;;;;8.80;6.50;;;;;6.60;95593.00;;;;7397777;19;20147;-78
2024/01/31 06:48:31;;;;;;;9.80;6.50;;;;;6.50;95593.00;;;;7396856;19;20137;-80
2024/01/31 06:51:09;;;;;;;11.20;7.03;;;;;6.60;95592.00;;;;7394702;19;20139;-81
2024/01/31 06:53:37;;;;;;;10.63;6.73;;;;;6.60;95597.00;;;;7396773;19;20377;-78
2024/01/31 06:56:16;;;;;;;14.43;8.37;;;;;6.90;95592.00;;;;7396409;19;20168;-79
2024/01/31 06:58:48;;;;;;;10.80;7.63;;;;;6.80;95593.00;;;;7402224;19;20597;-78
2024/01/31 07:01:26;;;;;;;13.23;8.20;;;;;6.70;95602.00;;;;7406836;19;20153;-80
2024/01/31 07:04:05;;;;;;;15.73;8.50;;;;;6.80;95597.00;;;;7403329;19;20624;-78
2024/01/31 07:06:39;;;;;;;12.30;7.87;;;;;6.70;95600.00;;;;7403844;19;20153;-79
2024/01/31 07:09:13;;;;;;;13.20;8.23;;;;;6.50;95602.00;;;;7402298;19;20555;-79
2024/01/31 07:12:08;;;;;;;13.73;7.53;;;;;6.60;95607.00;;;;7404746;19;20160;-78
2024/01/31 07:14:43;;;;;;;13.27;8.20;;;;;6.80;95607.00;;;;7402158;19;20605;-78
2024/01/31 07:17:11;;;;;;;12.80;7.50;;;;;6.80;95605.00;;;;7405107;19;20459;-78
2024/01/31 07:19:45;;;;;;;10.27;7.33;;;;;6.60;95598.00;;;;7403217;19;20144;-78
2024/01/31 07:22:18;;;;;;;15.10;7.70;;;;;6.70;95605.00;;;;7402848;19;20140;-79
2024/01/31 07:24:46;;;;;;;13.00;8.17;;;;;6.70;95611.00;;;;7403015;19;20145;-79
2024/01/31 07:27:20;;;;;;;11.30;7.13;;;;;6.60;95604.00;;;;7403754;19;20137;-79
2024/01/31 07:29:54;;;;;;;14.73;8.23;;;;;6.60;95606.00;;;;7401258;19;20177;-79
2024/01/31 07:32:28;;;;;;;8.57;6.80;;;;;6.70;95603.00;;;;7403277;19;20149;-78
2024/01/31 07:35:01;;;;;;;13.10;8.10;;;;;6.70;95598.00;;;;7403067;19;20608;-78
2024/01/31 07:37:37;;;;;;;11.27;7.23;;;;;7.00;95597.00;;;;7401776;19;20212;-78
2024/01/31 07:40:06;;;;;;;12.93;7.77;;;;;6.80;95587.00;;;;7404712;19;20133;-78
2024/01/31 07:42:41;;;;;;;10.97;7.43;;;;;6.90;95591.00;;;;7403358;19;20141;-80
2024/01/31 07:45:15;;;;;;;15.03;7.13;;;;;6.80;95587.00;;;;7403242;19;20148;-77
2024/01/31 07:47:49;;;;;;;18.70;8.00;;;;;7.20;95588.00;;;;7403699;19;20137;-80
2024/01/31 07:50:19;;;;;;;12.27;7.00;;;;;6.90;95595.00;;;;7401183;19;20627;-81
2024/01/31 07:52:52;;;;;;;12.53;8.03;;;;;7.00;95595.00;;;;7402096;19;20152;-78
2024/01/31 07:55:26;;;;;;;9.43;7.60;;;;;6.60;95603.00;;;;7402535;19;20496;-77
2024/01/31 07:58:00;;;;;;;10.73;7.63;;;;;6.60;95595.00;;;;7402457;19;20145;-81
2024/01/31 08:00:36;;;;;;;19.00;8.03;;;;;6.90;95596.00;;;;7402199;19;20144;-79
2024/01/31 08:03:10;;;;;;;14.63;7.70;;;;;6.90;95603.00;;;;7402435;19;20620;-79
2024/01/31 08:05:39;;;;;;;11.57;6.87;;;;;6.90;95600.00;;;;7400343;19;20132;-79
2024/01/31 08:08:15;;;;;;;12.60;7.53;;;;;6.60;95602.00;;;;7401446;19;20148;-78
2024/01/31 08:10:43;;;;;;;16.00;7.57;;;;;6.80;95600.00;;;;7397723;19;20613;-79
2024/01/31 08:13:25;;;;;;;9.50;6.87;;;;;7.20;95598.00;;;;7400253;19;20253;-78
2024/01/31 08:15:55;;;;;;;12.23;7.00;;;;;7.10;95594.00;;;;7401148;19;20633;-78
2024/01/31 08:18:35;;;;;;;11.77;6.93;;;;;7.10;95593.00;;;;7400572;19;20144;-79
2024/01/31 08:21:03;;;;;;;9.30;6.17;;;;;7.00;95601.00;;;;7400961;19;20169;-78
2024/01/31 08:23:36;;;;;;;10.68;6.55;;;;;7.00;95604.00;;;;7401057;19;20641;-80
2024/01/31 08:26:05;;;;;;;12.13;6.82;;;;;7.10;95605.00;;;;7398966;19;20149;-80
2024/01/31 08:28:41;;;;;;;17.00;7.20;;;;;7.10;95605.00;;;;7398978;19;20136;-80
2024/01/31 08:31:08;;;;;;;10.17;6.70;;;;;7.20;95595.00;;;;7398653;19;20125;-79
2024/01/31 08:33:44;;;;;;;8.80;5.97;;;;;7.30;95598.00;;;;7399516;19;20150;-78
2024/01/31 08:36:12;;;;;;;9.70;6.15;;;;;7.50;95595.00;;;;7399371;19;20466;-78
2024/01/31 08:38:43;;;;;;;8.90;5.88;;;;;7.60;95596.00;;;;7398920;19;20619;-78
2024/01/31 08:41:18;;;;;;;14.95;6.88;;;;;7.90;95582.00;;;;7399440;19;20589;-78
2024/01/31 08:43:49;;;;;;;14.80;6.43;;;;;7.80;95593.00;;;;7399071;19;20171;-79
2024/01/31 08:46:26;;;;;;;14.80;5.82;;;;;7.80;95600.00;;;;7402150;19;20137;-77
2024/01/31 08:48:54;;;;;;;11.18;6.30;;;;;7.90;95585.00;;;;7398591;19;20121;-81
2024/01/31 08:51:30;;;;;;;11.13;5.88;;;;;8.10;95587.00;;;;7396687;19;20144;-78
2024/01/31 08:54:00;;;;;;;8.93;6.05;;;;;8.00;95583.00;;;;7396857;19;20121;-80
2024/01/31 08:56:36;;;;;;;14.82;5.60;;;;;8.10;95583.00;;;;7395741;19;20157;-80
2024/01/31 08:59:05;;;;;;;8.75;5.55;;;;;8.10;95580.00;;;;7396355;19;20141;-82
2024/01/31 09:01:33;;;;;;;8.23;5.35;;;;;8.30;95585.00;;;;7396612;19;20144;-82
2024/01/31 09:04:07;;;;;;;10.75;5.15;;;;;8.40;95583.00;;;;7395155;19;20144;-81
2024/01/31 09:06:42;;;;;;;10.52;5.97;;;;;8.70;95588.00;;;;7394912;19;20148;-82
2024/01/31 09:09:16;;;;;;;8.30;5.07;;;;;8.70;95585.00;;;;7396059;19;20140;-82
2024/01/31 09:11:51;;;;;;;8.27;5.23;;;;;8.50;95584.00;;;;7393017;19;20153;-81
2024/01/31 09:14:25;;;;;;;8.73;6.20;;;;;8.30;95589.00;;;;7392451;19;20731;-82
2024/01/31 09:16:59;;;;;;;8.93;5.93;;;;;8.40;95592.00;;;;7394563;19;20159;-81
2024/01/31 09:19:29;;;;;;;6.55;5.38;;;;;8.10;95588.00;;;;7398543;19;20656;-81
2024/01/31 09:21:57;;;;;;;8.93;6.47;;;;;8.50;95591.00;;;;7395517;19;20497;-81
2024/01/31 09:24:31;;;;;;;7.95;6.00;;;;;8.50;95585.00;;;;7393415;19;20765;-80
2024/01/31 09:26:58;;;;;;;8.98;6.53;;;;;8.80;95584.00;;;;7395353;19;20640;-81
2024/01/31 09:29:34;;;;;;;11.20;5.75;;;;;9.10;95571.00;;;;7395037;19;20639;-81
2024/01/31 09:32:10;;;;;;;10.10;5.88;;;;;9.10;95579.00;;;;7391679;19;20451;-80
2024/01/31 09:34:45;;;;;;;9.80;5.28;;;;;9.00;95584.00;;;;7395539;19;20131;-81
2024/01/31 09:37:13;;;;;;;12.65;5.07;;;;;9.20;95576.00;;;;7394690;19;20208;-81
2024/01/31 09:39:48;;;;;;;8.40;5.20;;;;;9.00;95571.00;;;;7394262;19;20152;-80
2024/01/31 09:42:22;;;;;;;7.70;5.45;;;;;9.10;95573.00;;;;7395678;19;20136;-82
2024/01/31 09:44:53;;;;;;;10.45;5.07;;;;;9.10;95584.00;;;;7392496;19;20887;-81
2024/01/31 09:47:28;;;;;;;8.77;5.47;;;;;9.40;95570.00;;;;7396086;19;20198;-82
2024/01/31 09:50:03;;;;;;;7.72;5.65;;;;;9.60;95576.00;;;;7393218;19;20174;-81
2024/01/31 09:52:40;;;;;;;7.25;5.32;;;;;9.70;95574.00;;;;7389811;19;20173;-81
2024/01/31 09:55:10;;;;;;;8.27;5.30;;;;;9.40;95579.00;;;;7392370;19;20141;-80
2024/01/31 09:57:44;;;;;;;9.82;6.22;;;;;9.50;95572.00;;;;7393797;19;20136;-81
2024/01/31 10:00:19;;;;;;;9.30;5.22;;;;;9.90;95584.00;;;;7395619;19;20137;-80
2024/01/31 10:03:04;;;;;;;8.40;5.68;;;;;10.40;95574.00;;;;7393856;19;20546;-80
2024/01/31 10:05:38;;;;;;;8.68;5.38;;;;;10.60;95568.00;;;;7392163;19;20152;-79
2024/01/31 10:08:15;;;;;;;11.15;5.07;;;;;10.40;95570.00;;;;7394816;19;20592;-79
2024/01/31 10:10:58;;;;;;;9.07;5.18;;;;;10.70;95575.00;;;;7392382;19;20224;-80
2024/01/31 10:13:31;;;;;;;9.50;4.80;;;;;10.40;95571.00;;;;7390812;19;20605;-79
2024/01/31 10:16:13;;;;;;;8.57;4.13;;;;;10.00;95576.00;;;;7393263;19;20608;-80
2024/01/31 10:18:45;;;;;;;12.23;5.07;;;;;10.20;95566.00;;;;7395058;19;20161;-78
2024/01/31 10:21:19;;;;;;;11.85;5.03;;;;;10.10;95562.00;;;;7396949;19;20137;-78
2024/01/31 10:24:02;;;;;;;8.07;5.18;;;;;10.50;95560.00;;;;7397064;19;20155;-78
2024/01/31 10:26:36;;;;;;;11.68;5.47;;;;;10.60;95552.00;;;;7396605;19;20136;-79
2024/01/31 10:29:10;;;;;;;9.18;4.57;;;;;10.20;95560.00;;;;7396542;19;20624;-78
2024/01/31 10:31:44;;;;;;;6.32;3.90;;;;;10.60;95553.00;;;;7396141;19;20631;-79
2024/01/31 10:34:20;;;;;;;9.57;4.65;;;;;11.00;95544.00;;;;7405478;19;20147;-80
2024/01/31 10:37:00;;;;;;;7.05;4.57;;;;;11.70;95534.00;;;;7405006;19;20674;-78
2024/01/31 10:39:57;;;;;;;9.95;4.43;;;;;11.90;95535.00;;;;7404946;19;20605;-77
2024/01/31 10:42:27;;;;;;;8.02;4.82;;;;;12.20;95532.00;;;;7403664;19;20196;-78
2024/01/31 10:45:12;;;;;;;10.20;4.47;;;;;11.90;95527.00;;;;7402535;19;20172;-81
2024/01/31 10:47:43;;;;;;;6.03;4.00;;;;;11.80;95525.00;;;;7403223;19;20132;-78
2024/01/31 10:50:19;;;;;;;11.13;4.13;;;;;12.20;95527.00;;;;7403695;19;20128;-78
2024/01/31 10:52:54;;;;;;;6.85;3.60;;;;;11.80;95527.00;;;;7402089;19;20129;-80
2024/01/31 10:55:30;;;;;;;5.30;3.20;;;;;10.40;95531.00;;;;7403784;19;20167;-79
2024/01/31 10:58:05;;;;;;;9.63;3.53;;;;;10.40;95528.00;;;;7404779;19;20137;-80
2024/01/31 11:00:33;;;;;;;8.65;4.03;;;;;10.70;95527.00;;;;7403549;19;20494;-81
2024/01/31 11:03:12;;;;;;;5.60;3.00;;;;;10.60;95518.00;;;;7402398;19;20172;-77
2024/01/31 11:05:51;;;;;;;5.15;3.35;;;;;10.60;95516.00;;;;7401757;19;20161;-79
2024/01/31 11:08:21;;;;;;;6.65;2.85;;;;;11.40;95512.00;;;;7400224;19;20141;-78
2024/01/31 11:10:55;;;;;;;8.32;3.83;;;;;11.20;95508.00;;;;7398945;19;20206;-81
2024/01/31 11:13:23;;;;;;;6.45;2.85;;;;;11.00;95507.00;;;;7396032;19;20168;-80
2024/01/31 11:16:03;;;;;;;5.00;2.50;;;;;11.30;95500.00;;;;7399223;19;20500;-79
2024/01/31 11:18:35;;;;;;;4.00;2.75;;;;;11.70;95491.00;;;;7401872;19;20200;-84
2024/01/31 11:21:14;;;;;;;4.30;2.30;;;;;11.30;95498.00;;;;7398131;19;20171;-83
2024/01/31 11:23:42;;;;;;;3.35;2.28;;;;;11.10;95491.00;;;;7401786;19;20141;-83
2024/01/31 11:26:18;;;;;;;2.60;1.98;;;;;12.00;95484.00;;;;7401614;19;20132;-83
2024/01/31 11:28:49;;;;;;;3.25;2.13;;;;;12.20;95453.00;;;;7402328;19;20180;-82
2024/01/31 11:31:24;;;;;;;4.13;2.00;;;;;12.10;95443.00;;;;7400524;19;20216;-85
2024/01/31 11:33:55;;;;;;;4.95;2.42;;;;;13.40;95459.00;;;;7398503;19;20641;-82
2024/01/31 11:36:29;;;;;;;4.18;2.00;;;;;12.80;95465.00;;;;7401057;19;20153;-83
2024/01/31 11:39:00;;;;;;;5.50;2.25;;;;;11.80;95492.00;;;;7402541;19;20154;-84
2024/01/31 11:41:38;;;;;;;3.67;2.20;;;;;10.80;95468.00;;;;7400004;19;20200;-82
2024/01/31 11:44:14;;;;;;;2.78;1.90;;;;;11.30;95465.00;;;;7396185;19;20168;-82
2024/01/31 11:46:50;;;;;;;2.75;1.83;;;;;10.80;95477.00;;;;7401044;19;20161;-84
2024/01/31 11:49:30;;;;;;;5.18;2.20;;;;;11.50;95421.00;;;;7398911;19;20141;-83
2024/01/31 11:52:00;;;;;;;7.15;2.10;;;;;13.40;95427.00;;;;7397449;19;20621;-83
2024/01/31 11:54:34;;;;;;;6.00;2.40;;;;;14.20;95447.00;;;;7397626;19;20517;-85
2024/01/31 11:57:02;;;;;;;4.28;2.10;;;;;12.50;95446.00;;;;7399954;19;20132;-85
2024/01/31 11:59:29;;;;;;;3.80;2.00;;;;;11.60;95463.00;;;;7399891;19;20177;-83
2024/01/31 12:02:09;;;;;;;3.80;2.13;;;;;12.40;95437.00;;;;7402132;19;20129;-83
2024/01/31 12:04:57;;;;;;;3.88;2.30;;;;;13.90;95399.00;;;;7399427;19;20600;-84
2024/01/31 12:07:34;;;;;;;3.15;2.17;;;;;15.40;95413.00;;;;7397626;19;20144;-83
2024/01/31 12:10:07;;;;;;;3.90;2.20;;;;;14.50;95450.00;;;;7399152;19;20141;-82
2024/01/31 12:12:51;;;;;;;2.90;1.80;;;;;13.30;95437.00;;;;7400412;19;20589;-82
2024/01/31 12:15:46;;;;;;;7.07;2.30;;;;;14.50;95414.00;;;;7401888;19;20148;-83
2024/01/31 12:18:19;;;;;;;3.65;2.05;;;;;14.70;95416.00;;;;7397550;19;20148;-82
2024/01/31 12:21:03;;;;;;;3.30;2.20;;;;;13.40;95432.00;;;;7399534;19;20152;-81
2024/01/31 12:23:40;;;;;;;6.38;2.70;;;;;15.50;95414.00;;;;7396921;19;20152;-82
2024/01/31 12:26:19;;;;;;;4.43;2.42;;;;;17.20;95415.00;;;;7398958;19;20136;-83
2024/01/31 12:28:57;;;;;;;3.28;2.30;;;;;16.50;95422.00;;;;7397654;19;20147;-81
2024/01/31 12:31:25;;;;;;;3.35;2.20;;;;;15.60;95453.00;;;;7397380;19;20652;-79
2024/01/31 12:33:53;;;;;;;4.50;2.40;;;;;14.50;95428.00;;;;7394053;19;20140;-76
2024/01/31 12:36:29;;;;;;;4.85;2.20;;;;;17.10;95413.00;;;;7396085;19;20132;-80
2024/01/31 12:38:58;;;;;;;6.88;2.40;;;;;15.60;95424.00;;;;7394320;19;20188;-80
2024/01/31 12:41:32;;;;;;;7.20;2.80;;;;;13.90;95420.00;;;;7396780;19;20136;-77
2024/01/31 12:44:00;;;;;;;4.18;2.30;;;;;15.00;95454.00;;;;7393737;19;20252;-81
2024/01/31 12:46:35;;;;;;;6.55;2.65;;;;;15.10;95418.00;;;;7396040;19;20136;-80
2024/01/31 12:49:03;;;;;;;5.13;2.30;;;;;14.80;95463.00;;;;7394720;19;20366;-78
2024/01/31 12:51:37;;;;;;;4.57;2.42;;;;;13.70;95463.00;;;;7395448;19;20173;-79
2024/01/31 12:54:13;;;;;;;11.52;2.85;;;;;12.00;95470.00;;;;7394154;19;20185;-78